sensor_id;sensor_type;location;lat;lon;timestamp;pressure;altitude;pressure_sealevel;temperature;humidity
46412;BME280;32113;42.012;24.870;2023-08-21T00:00:59;99043.72;;;26.21;44.71
46412;BME280;32113;42.012;24.870;2023-08-21T00:03:24;99033.56;;;26.16;44.57
46412;BME280;32113;42.012;24.870;2023-08-21T00:05:50;99037.84;;;26.06;44.83
46412;BME280;32113;42.012;24.870;2023-08-21T00:08:15;99039.88;;;26.14;44.95
46412;BME280;32113;42.012;24.870;2023-08-21T00:10:40;99046.00;;;26.14;44.63
46412;BME280;32113;42.012;24.870;2023-08-21T00:13:06;99048.59;;;26.03;44.86
46412;BME280;32113;42.012;24.870;2023-08-21T00:15:31;99042.59;;;25.89;44.79
46412;BME280;32113;42.012;24.870;2023-08-21T00:17:56;99044.03;;;25.93;45.05
46412;BME280;32113;42.012;24.870;2023-08-21T00:20:22;99042.38;;;26.04;44.59
46412;BME280;32113;42.012;24.870;2023-08-21T00:22:47;99036.16;;;26.05;44.63
46412;BME280;32113;42.012;24.870;2023-08-21T00:25:12;99032.09;;;26.01;44.03
46412;BME280;32113;42.012;24.870;2023-08-21T00:27:37;99053.47;;;25.96;44.89
46412;BME280;32113;42.012;24.870;2023-08-21T00:30:03;99054.78;;;25.90;45.36
46412;BME280;32113;42.012;24.870;2023-08-21T00:32:28;99047.00;;;25.89;45.03
46412;BME280;32113;42.012;24.870;2023-08-21T00:34:53;99040.56;;;25.93;44.83
46412;BME280;32113;42.012;24.870;2023-08-21T00:37:19;99043.09;;;25.94;44.71
46412;BME280;32113;42.012;24.870;2023-08-21T00:39:44;99044.72;;;25.84;45.45
46412;BME280;32113;42.012;24.870;2023-08-21T00:42:10;99052.59;;;25.84;45.51
46412;BME280;32113;42.012;24.870;2023-08-21T00:44:35;99046.69;;;25.69;45.72
46412;BME280;32113;42.012;24.870;2023-08-21T00:47:00;99048.19;;;25.60;46.19
46412;BME280;32113;42.012;24.870;2023-08-21T00:49:25;99054.44;;;25.46;46.83
46412;BME280;32113;42.012;24.870;2023-08-21T00:51:51;99044.63;;;25.61;46.25
46412;BME280;32113;42.012;24.870;2023-08-21T00:54:17;99051.06;;;25.57;46.14
46412;BME280;32113;42.012;24.870;2023-08-21T00:56:44;99060.53;;;25.47;46.25
46412;BME280;32113;42.012;24.870;2023-08-21T00:59:09;99050.69;;;25.37;46.42
46412;BME280;32113;42.012;24.870;2023-08-21T01:01:35;99063.38;;;25.43;46.66
46412;BME280;32113;42.012;24.870;2023-08-21T01:04:00;99057.78;;;25.48;46.52
46412;BME280;32113;42.012;24.870;2023-08-21T01:06:26;99053.16;;;25.52;46.50
46412;BME280;32113;42.012;24.870;2023-08-21T01:09:00;99063.56;;;25.53;46.11
46412;BME280;32113;42.012;24.870;2023-08-21T01:11:31;99062.72;;;25.53;46.24
46412;BME280;32113;42.012;24.870;2023-08-21T01:16:30;99065.97;;;25.56;45.89
46412;BME280;32113;42.012;24.870;2023-08-21T01:18:56;99067.63;;;25.57;46.15
46412;BME280;32113;42.012;24.870;2023-08-21T01:21:22;99063.38;;;25.43;46.56
46412;BME280;32113;42.012;24.870;2023-08-21T01:23:48;99065.53;;;25.50;46.31
46412;BME280;32113;42.012;24.870;2023-08-21T01:26:14;99058.00;;;25.45;46.21
46412;BME280;32113;42.012;24.870;2023-08-21T01:28:39;99060.03;;;25.41;46.48
46412;BME280;32113;42.012;24.870;2023-08-21T01:34:06;99050.13;;;25.45;46.35
46412;BME280;32113;42.012;24.870;2023-08-21T01:36:34;99052.59;;;25.35;46.58
46412;BME280;32113;42.012;24.870;2023-08-21T01:39:00;99054.31;;;25.23;46.70
46412;BME280;32113;42.012;24.870;2023-08-21T01:41:25;99054.66;;;25.05;47.22
46412;BME280;32113;42.012;24.870;2023-08-21T01:43:50;99050.50;;;24.90;47.71
46412;BME280;32113;42.012;24.870;2023-08-21T01:46:16;99047.38;;;24.72;47.91
46412;BME280;32113;42.012;24.870;2023-08-21T01:48:41;99051.88;;;24.57;48.60
46412;BME280;32113;42.012;24.870;2023-08-21T01:51:06;99054.50;;;24.57;48.68
46412;BME280;32113;42.012;24.870;2023-08-21T01:53:31;99056.59;;;24.64;48.53
46412;BME280;32113;42.012;24.870;2023-08-21T01:55:57;99058.06;;;24.69;48.14
46412;BME280;32113;42.012;24.870;2023-08-21T01:58:22;99050.81;;;24.59;48.06
46412;BME280;32113;42.012;24.870;2023-08-21T02:00:47;99048.41;;;24.69;47.50
46412;BME280;32113;42.012;24.870;2023-08-21T02:03:13;99052.41;;;24.62;47.98
46412;BME280;32113;42.012;24.870;2023-08-21T02:05:38;99052.59;;;24.59;48.35
46412;BME280;32113;42.012;24.870;2023-08-21T02:08:05;99050.09;;;24.44;48.62
46412;BME280;32113;42.012;24.870;2023-08-21T02:10:31;99042.66;;;24.38;48.81
46412;BME280;32113;42.012;24.870;2023-08-21T02:12:56;99046.84;;;24.40;48.84
46412;BME280;32113;42.012;24.870;2023-08-21T02:15:21;99049.91;;;24.34;48.61
46412;BME280;32113;42.012;24.870;2023-08-21T02:17:47;99044.66;;;24.34;48.61
46412;BME280;32113;42.012;24.870;2023-08-21T02:20:12;99044.94;;;24.30;48.65
46412;BME280;32113;42.012;24.870;2023-08-21T02:22:38;99067.19;;;24.24;49.11
46412;BME280;32113;42.012;24.870;2023-08-21T02:25:03;99050.09;;;24.18;49.13
46412;BME280;32113;42.012;24.870;2023-08-21T02:27:28;99054.25;;;24.08;49.51
46412;BME280;32113;42.012;24.870;2023-08-21T02:29:53;99061.09;;;24.23;48.93
46412;BME280;32113;42.012;24.870;2023-08-21T02:32:19;99049.75;;;24.23;49.09
46412;BME280;32113;42.012;24.870;2023-08-21T02:34:44;99053.13;;;24.25;48.98
46412;BME280;32113;42.012;24.870;2023-08-21T02:37:09;99049.91;;;24.21;49.06
46412;BME280;32113;42.012;24.870;2023-08-21T02:39:34;99050.69;;;24.09;49.22
46412;BME280;32113;42.012;24.870;2023-08-21T02:42:00;99067.16;;;24.11;49.06
46412;BME280;32113;42.012;24.870;2023-08-21T02:44:25;99050.50;;;24.12;49.20
46412;BME280;32113;42.012;24.870;2023-08-21T02:46:50;99046.94;;;24.13;49.04
46412;BME280;32113;42.012;24.870;2023-08-21T02:49:15;99049.91;;;24.34;48.39
46412;BME280;32113;42.012;24.870;2023-08-21T02:51:41;99036.16;;;24.31;48.35
46412;BME280;32113;42.012;24.870;2023-08-21T02:54:06;99048.31;;;24.32;48.17
46412;BME280;32113;42.012;24.870;2023-08-21T02:56:31;99043.69;;;24.22;48.36
46412;BME280;32113;42.012;24.870;2023-08-21T02:58:57;99049.34;;;24.16;48.59
46412;BME280;32113;42.012;24.870;2023-08-21T03:01:22;99039.50;;;24.20;48.19
46412;BME280;32113;42.012;24.870;2023-08-21T03:03:47;99043.91;;;24.19;48.38
46412;BME280;32113;42.012;24.870;2023-08-21T03:06:12;99041.69;;;24.13;48.73
46412;BME280;32113;42.012;24.870;2023-08-21T03:08:38;99042.06;;;24.07;48.73
46412;BME280;32113;42.012;24.870;2023-08-21T03:11:03;99042.06;;;23.94;49.16
46412;BME280;32113;42.012;24.870;2023-08-21T03:13:28;99048.13;;;23.81;49.51
46412;BME280;32113;42.012;24.870;2023-08-21T03:15:53;99043.16;;;23.77;49.78
46412;BME280;32113;42.012;24.870;2023-08-21T03:18:19;99040.66;;;23.75;49.83
46412;BME280;32113;42.012;24.870;2023-08-21T03:20:47;99040.75;;;23.73;49.59
46412;BME280;32113;42.012;24.870;2023-08-21T03:23:13;99049.94;;;23.66;49.60
46412;BME280;32113;42.012;24.870;2023-08-21T03:25:38;99045.66;;;23.65;49.60
46412;BME280;32113;42.012;24.870;2023-08-21T03:28:03;99047.53;;;23.63;49.65
46412;BME280;32113;42.012;24.870;2023-08-21T03:30:29;99042.91;;;23.67;49.76
46412;BME280;32113;42.012;24.870;2023-08-21T03:32:54;99058.63;;;23.67;49.76
46412;BME280;32113;42.012;24.870;2023-08-21T03:35:19;99056.13;;;23.65;49.74
46412;BME280;32113;42.012;24.870;2023-08-21T03:37:44;99056.31;;;23.62;49.66
46412;BME280;32113;42.012;24.870;2023-08-21T03:40:10;99057.28;;;23.61;49.76
46412;BME280;32113;42.012;24.870;2023-08-21T03:42:35;99051.50;;;23.56;49.86
46412;BME280;32113;42.012;24.870;2023-08-21T03:45:01;99056.19;;;23.51;50.13
46412;BME280;32113;42.012;24.870;2023-08-21T03:47:28;99060.97;;;23.44;50.47
46412;BME280;32113;42.012;24.870;2023-08-21T03:49:54;99057.16;;;23.35;50.55
46412;BME280;32113;42.012;24.870;2023-08-21T03:52:19;99064.72;;;23.25;50.86
46412;BME280;32113;42.012;24.870;2023-08-21T03:54:44;99063.97;;;23.23;51.08
46412;BME280;32113;42.012;24.870;2023-08-21T03:57:09;99062.13;;;23.25;51.02
46412;BME280;32113;42.012;24.870;2023-08-21T03:59:35;99066.59;;;23.38;50.42
46412;BME280;32113;42.012;24.870;2023-08-21T04:02:00;99064.59;;;23.56;49.94
46412;BME280;32113;42.012;24.870;2023-08-21T04:04:25;99063.91;;;23.52;49.74
46412;BME280;32113;42.012;24.870;2023-08-21T04:06:50;99080.03;;;23.46;49.75
46412;BME280;32113;42.012;24.870;2023-08-21T04:09:16;99068.53;;;23.48;49.83
46412;BME280;32113;42.012;24.870;2023-08-21T04:11:41;99071.28;;;23.60;49.37
46412;BME280;32113;42.012;24.870;2023-08-21T04:14:06;99066.97;;;23.59;49.39
46412;BME280;32113;42.012;24.870;2023-08-21T04:16:31;99080.88;;;23.46;49.63
46412;BME280;32113;42.012;24.870;2023-08-21T04:18:57;99068.63;;;23.47;49.62
46412;BME280;32113;42.012;24.870;2023-08-21T04:21:22;99071.81;;;23.38;49.95
46412;BME280;32113;42.012;24.870;2023-08-21T04:23:48;99084.63;;;23.42;49.72
46412;BME280;32113;42.012;24.870;2023-08-21T04:26:13;99072.94;;;23.33;50.20
46412;BME280;32113;42.012;24.870;2023-08-21T04:28:38;99080.72;;;23.35;50.07
46412;BME280;32113;42.012;24.870;2023-08-21T04:31:04;99076.47;;;23.32;50.19
46412;BME280;32113;42.012;24.870;2023-08-21T04:33:30;99071.31;;;23.45;49.79
46412;BME280;32113;42.012;24.870;2023-08-21T04:35:55;99077.50;;;23.44;49.54
46412;BME280;32113;42.012;24.870;2023-08-21T04:38:21;99067.03;;;23.44;49.77
46412;BME280;32113;42.012;24.870;2023-08-21T04:40:46;99074.06;;;23.44;49.39
46412;BME280;32113;42.012;24.870;2023-08-21T04:43:11;99071.63;;;23.41;49.62
46412;BME280;32113;42.012;24.870;2023-08-21T04:45:37;99073.75;;;23.48;49.56
46412;BME280;32113;42.012;24.870;2023-08-21T04:48:05;99079.84;;;23.49;49.30
46412;BME280;32113;42.012;24.870;2023-08-21T04:50:30;99078.91;;;23.50;49.26
46412;BME280;32113;42.012;24.870;2023-08-21T04:52:55;99078.00;;;23.64;49.11
46412;BME280;32113;42.012;24.870;2023-08-21T04:55:21;99075.81;;;23.71;48.92
46412;BME280;32113;42.012;24.870;2023-08-21T04:57:46;99072.56;;;23.67;48.96
46412;BME280;32113;42.012;24.870;2023-08-21T05:00:11;99078.25;;;23.74;48.46
46412;BME280;32113;42.012;24.870;2023-08-21T05:02:37;99083.50;;;23.74;48.30
46412;BME280;32113;42.012;24.870;2023-08-21T05:05:02;99083.75;;;23.84;48.09
46412;BME280;32113;42.012;24.870;2023-08-21T05:07:28;99081.44;;;23.92;47.94
46412;BME280;32113;42.012;24.870;2023-08-21T05:09:53;99092.78;;;23.93;47.91
46412;BME280;32113;42.012;24.870;2023-08-21T05:12:18;99083.03;;;23.95;47.95
46412;BME280;32113;42.012;24.870;2023-08-21T05:14:43;99085.34;;;23.99;47.81
46412;BME280;32113;42.012;24.870;2023-08-21T05:17:09;99079.06;;;24.02;47.85
46412;BME280;32113;42.012;24.870;2023-08-21T05:19:34;99079.59;;;24.07;47.65
46412;BME280;32113;42.012;24.870;2023-08-21T05:21:59;99086.97;;;24.15;47.64
46412;BME280;32113;42.012;24.870;2023-08-21T05:24:24;99077.41;;;24.01;47.55
46412;BME280;32113;42.012;24.870;2023-08-21T05:26:49;99083.91;;;24.08;47.56
46412;BME280;32113;42.012;24.870;2023-08-21T05:29:15;99082.97;;;24.09;47.47
46412;BME280;32113;42.012;24.870;2023-08-21T05:31:40;99094.56;;;24.20;46.87
46412;BME280;32113;42.012;24.870;2023-08-21T05:34:05;99094.03;;;24.27;46.96
46412;BME280;32113;42.012;24.870;2023-08-21T05:36:31;99091.84;;;24.34;46.89
46412;BME280;32113;42.012;24.870;2023-08-21T05:38:56;99091.75;;;24.49;46.62
46412;BME280;32113;42.012;24.870;2023-08-21T05:41:22;99085.88;;;24.71;46.00
46412;BME280;32113;42.012;24.870;2023-08-21T05:43:47;99085.22;;;24.80;45.79
46412;BME280;32113;42.012;24.870;2023-08-21T05:46:14;99071.84;;;24.85;45.58
46412;BME280;32113;42.012;24.870;2023-08-21T05:48:39;99097.94;;;24.87;45.53
46412;BME280;32113;42.012;24.870;2023-08-21T05:51:04;99082.09;;;24.88;45.58
46412;BME280;32113;42.012;24.870;2023-08-21T05:53:30;99091.84;;;24.99;45.34
46412;BME280;32113;42.012;24.870;2023-08-21T05:55:55;99095.50;;;25.10;45.18
46412;BME280;32113;42.012;24.870;2023-08-21T05:58:20;99089.50;;;25.21;44.78
46412;BME280;32113;42.012;24.870;2023-08-21T06:00:46;99095.44;;;25.36;44.23
46412;BME280;32113;42.012;24.870;2023-08-21T06:03:12;99094.44;;;25.50;44.29
46412;BME280;32113;42.012;24.870;2023-08-21T06:05:37;99100.72;;;25.60;43.81
46412;BME280;32113;42.012;24.870;2023-08-21T06:08:02;99100.19;;;25.68;43.95
46412;BME280;32113;42.012;24.870;2023-08-21T06:10:28;99099.66;;;25.87;43.84
46412;BME280;32113;42.012;24.870;2023-08-21T06:12:53;99109.16;;;26.01;43.11
46412;BME280;32113;42.012;24.870;2023-08-21T06:15:18;99103.06;;;26.01;43.42
46412;BME280;32113;42.012;24.870;2023-08-21T06:17:43;99108.88;;;26.17;42.80
46412;BME280;32113;42.012;24.870;2023-08-21T06:20:09;99112.03;;;26.09;42.59
46412;BME280;32113;42.012;24.870;2023-08-21T06:22:37;99098.84;;;26.22;42.99
46412;BME280;32113;42.012;24.870;2023-08-21T06:25:03;99109.56;;;26.44;42.18
46412;BME280;32113;42.012;24.870;2023-08-21T06:27:28;99103.72;;;26.52;41.90
46412;BME280;32113;42.012;24.870;2023-08-21T06:29:54;99100.97;;;26.65;41.66
46412;BME280;32113;42.012;24.870;2023-08-21T06:32:19;99113.66;;;26.82;41.45
46412;BME280;32113;42.012;24.870;2023-08-21T06:34:44;99109.34;;;26.93;40.97
46412;BME280;32113;42.012;24.870;2023-08-21T06:37:09;99109.50;;;27.02;41.38
46412;BME280;32113;42.012;24.870;2023-08-21T06:39:35;99104.69;;;27.19;40.90
46412;BME280;32113;42.012;24.870;2023-08-21T06:42:00;99111.50;;;27.33;40.37
46412;BME280;32113;42.012;24.870;2023-08-21T06:44:25;99106.59;;;27.28;39.96
46412;BME280;32113;42.012;24.870;2023-08-21T06:46:51;99104.66;;;27.42;40.17
46412;BME280;32113;42.012;24.870;2023-08-21T06:49:16;99105.00;;;27.60;39.53
46412;BME280;32113;42.012;24.870;2023-08-21T06:51:41;99101.75;;;27.68;39.69
46412;BME280;32113;42.012;24.870;2023-08-21T06:54:06;99105.38;;;27.88;39.11
46412;BME280;32113;42.012;24.870;2023-08-21T06:56:32;99113.94;;;28.02;39.30
46412;BME280;32113;42.012;24.870;2023-08-21T06:58:57;99120.31;;;28.20;38.85
46412;BME280;32113;42.012;24.870;2023-08-21T07:01:22;99116.69;;;28.33;38.45
46412;BME280;32113;42.012;24.870;2023-08-21T07:03:47;99114.63;;;28.37;38.50
46412;BME280;32113;42.012;24.870;2023-08-21T07:06:13;99118.16;;;28.47;38.28
46412;BME280;32113;42.012;24.870;2023-08-21T07:08:38;99097.81;;;28.59;38.46
46412;BME280;32113;42.012;24.870;2023-08-21T07:11:05;99108.19;;;28.82;38.44
46412;BME280;32113;42.012;24.870;2023-08-21T07:13:31;99107.56;;;28.90;38.20
46412;BME280;32113;42.012;24.870;2023-08-21T07:15:56;99109.56;;;29.07;38.15
46412;BME280;32113;42.012;24.870;2023-08-21T07:18:21;99093.47;;;29.20;38.10
46412;BME280;32113;42.012;24.870;2023-08-21T07:20:47;99087.53;;;29.28;38.25
46412;BME280;32113;42.012;24.870;2023-08-21T07:23:12;99093.13;;;29.45;37.23
46412;BME280;32113;42.012;24.870;2023-08-21T07:25:37;99096.94;;;29.52;35.95
46412;BME280;32113;42.012;24.870;2023-08-21T07:28:03;99092.63;;;29.71;36.94
46412;BME280;32113;42.012;24.870;2023-08-21T07:30:28;99097.63;;;29.94;36.06
46412;BME280;32113;42.012;24.870;2023-08-21T07:32:53;99098.72;;;30.11;36.60
46412;BME280;32113;42.012;24.870;2023-08-21T07:35:19;99090.50;;;30.34;35.11
46412;BME280;32113;42.012;24.870;2023-08-21T07:37:45;99084.91;;;30.47;35.16
46412;BME280;32113;42.012;24.870;2023-08-21T07:40:11;99088.59;;;30.64;34.28
46412;BME280;32113;42.012;24.870;2023-08-21T07:42:36;99089.28;;;30.76;34.27
46412;BME280;32113;42.012;24.870;2023-08-21T07:45:01;99084.28;;;31.01;34.38
46412;BME280;32113;42.012;24.870;2023-08-21T07:47:27;99079.69;;;31.21;33.90
46412;BME280;32113;42.012;24.870;2023-08-21T07:49:52;99086.13;;;31.46;33.85
46412;BME280;32113;42.012;24.870;2023-08-21T07:52:18;99080.88;;;31.73;31.58
46412;BME280;32113;42.012;24.870;2023-08-21T07:54:43;99075.59;;;31.91;32.04
46412;BME280;32113;42.012;24.870;2023-08-21T07:57:09;99077.75;;;32.14;31.55
46412;BME280;32113;42.012;24.870;2023-08-21T07:59:34;99083.16;;;32.31;30.60
46412;BME280;32113;42.012;24.870;2023-08-21T08:02:01;99078.03;;;32.56;30.13
46412;BME280;32113;42.012;24.870;2023-08-21T08:04:27;99078.13;;;32.81;30.01
46412;BME280;32113;42.012;24.870;2023-08-21T08:06:53;99081.75;;;33.06;30.16
46412;BME280;32113;42.012;24.870;2023-08-21T08:09:18;99071.34;;;33.29;28.96
46412;BME280;32113;42.012;24.870;2023-08-21T08:11:44;99072.69;;;33.50;28.65
46412;BME280;32113;42.012;24.870;2023-08-21T08:14:09;99077.06;;;33.76;28.42
46412;BME280;32113;42.012;24.870;2023-08-21T08:16:34;99070.06;;;34.00;28.96
46412;BME280;32113;42.012;24.870;2023-08-21T08:18:59;99080.06;;;34.23;28.88
46412;BME280;32113;42.012;24.870;2023-08-21T08:21:25;99075.97;;;34.52;28.38
46412;BME280;32113;42.012;24.870;2023-08-21T08:23:50;99077.63;;;34.70;27.57
46412;BME280;32113;42.012;24.870;2023-08-21T08:26:15;99061.84;;;34.92;26.85
46412;BME280;32113;42.012;24.870;2023-08-21T08:28:41;99068.03;;;34.92;25.76
46412;BME280;32113;42.012;24.870;2023-08-21T08:31:07;99066.97;;;35.02;26.75
46412;BME280;32113;42.012;24.870;2023-08-21T08:33:40;99063.75;;;35.15;26.55
46412;BME280;32113;42.012;24.870;2023-08-21T08:36:06;99063.72;;;35.23;25.95
46412;BME280;32113;42.012;24.870;2023-08-21T08:38:31;99060.28;;;35.37;26.28
46412;BME280;32113;42.012;24.870;2023-08-21T08:40:56;99061.44;;;35.58;25.79
46412;BME280;32113;42.012;24.870;2023-08-21T08:43:22;99059.81;;;35.81;25.50
46412;BME280;32113;42.012;24.870;2023-08-21T08:45:49;99050.72;;;35.90;25.29
46412;BME280;32113;42.012;24.870;2023-08-21T08:48:15;99057.66;;;35.99;25.50
46412;BME280;32113;42.012;24.870;2023-08-21T08:50:41;99047.69;;;36.08;25.48
46412;BME280;32113;42.012;24.870;2023-08-21T08:53:07;99051.63;;;36.21;25.61
46412;BME280;32113;42.012;24.870;2023-08-21T08:55:33;99049.31;;;36.33;24.98
46412;BME280;32113;42.012;24.870;2023-08-21T08:57:58;99049.50;;;36.46;25.62
46412;BME280;32113;42.012;24.870;2023-08-21T09:00:24;99050.84;;;36.57;24.87
46412;BME280;32113;42.012;24.870;2023-08-21T09:02:49;99042.22;;;36.70;24.82
46412;BME280;32113;42.012;24.870;2023-08-21T09:05:14;99042.06;;;36.93;25.51
46412;BME280;32113;42.012;24.870;2023-08-21T09:07:40;99047.56;;;37.07;24.72
46412;BME280;32113;42.012;24.870;2023-08-21T09:10:16;99053.81;;;37.14;23.98
46412;BME280;32113;42.012;24.870;2023-08-21T09:12:44;99040.81;;;37.11;23.96
46412;BME280;32113;42.012;24.870;2023-08-21T09:15:09;99041.72;;;37.18;24.07
46412;BME280;32113;42.012;24.870;2023-08-21T09:17:35;99038.56;;;37.30;23.99
46412;BME280;32113;42.012;24.870;2023-08-21T09:20:03;99038.94;;;37.49;23.34
46412;BME280;32113;42.012;24.870;2023-08-21T09:22:29;99027.03;;;37.51;23.45
46412;BME280;32113;42.012;24.870;2023-08-21T09:27:26;99020.44;;;37.76;23.31
46412;BME280;32113;42.012;24.870;2023-08-21T09:29:51;99012.72;;;37.88;23.40
46412;BME280;32113;42.012;24.870;2023-08-21T09:32:16;99012.66;;;38.09;23.71
46412;BME280;32113;42.012;24.870;2023-08-21T09:34:42;99009.22;;;38.22;23.44
46412;BME280;32113;42.012;24.870;2023-08-21T09:37:08;99002.47;;;38.33;22.74
46412;BME280;32113;42.012;24.870;2023-08-21T09:39:35;99007.28;;;38.45;23.03
46412;BME280;32113;42.012;24.870;2023-08-21T09:42:02;98993.91;;;38.51;22.66
46412;BME280;32113;42.012;24.870;2023-08-21T09:44:29;98991.06;;;38.60;22.92
46412;BME280;32113;42.012;24.870;2023-08-21T09:46:59;98985.13;;;38.71;22.90
46412;BME280;32113;42.012;24.870;2023-08-21T09:49:25;98992.78;;;38.88;22.77
46412;BME280;32113;42.012;24.870;2023-08-21T09:51:50;98994.03;;;38.85;20.79
46412;BME280;32113;42.012;24.870;2023-08-21T09:54:15;98984.13;;;38.79;20.86
46412;BME280;32113;42.012;24.870;2023-08-21T09:56:41;98975.44;;;38.84;21.27
46412;BME280;32113;42.012;24.870;2023-08-21T09:59:06;98976.91;;;38.73;21.51
46412;BME280;32113;42.012;24.870;2023-08-21T10:01:33;98978.97;;;38.84;21.01
46412;BME280;32113;42.012;24.870;2023-08-21T10:03:59;98982.50;;;38.98;22.27
46412;BME280;32113;42.012;24.870;2023-08-21T10:06:28;98964.16;;;39.02;22.34
46412;BME280;32113;42.012;24.870;2023-08-21T10:08:53;98969.97;;;39.06;22.55
46412;BME280;32113;42.012;24.870;2023-08-21T10:11:20;98977.56;;;38.95;22.69
46412;BME280;32113;42.012;24.870;2023-08-21T10:13:45;98966.63;;;38.97;21.68
46412;BME280;32113;42.012;24.870;2023-08-21T10:16:11;98966.38;;;38.78;21.81
46412;BME280;32113;42.012;24.870;2023-08-21T10:18:37;98965.38;;;38.86;21.69
46412;BME280;32113;42.012;24.870;2023-08-21T10:23:37;98944.97;;;38.98;20.81
46412;BME280;32113;42.012;24.870;2023-08-21T10:26:05;98948.25;;;38.94;21.96
46412;BME280;32113;42.012;24.870;2023-08-21T10:28:43;98949.25;;;38.72;21.35
46412;BME280;32113;42.012;24.870;2023-08-21T10:31:29;98947.75;;;38.56;22.04
46412;BME280;32113;42.012;24.870;2023-08-21T10:33:54;98941.53;;;38.42;22.08
46412;BME280;32113;42.012;24.870;2023-08-21T10:39:15;98952.00;;;37.95;22.25
46412;BME280;32113;42.012;24.870;2023-08-21T10:41:42;98951.31;;;37.79;22.42
46412;BME280;32113;42.012;24.870;2023-08-21T10:44:17;98940.31;;;37.67;21.91
46412;BME280;32113;42.012;24.870;2023-08-21T10:47:12;98944.66;;;37.46;22.39
46412;BME280;32113;42.012;24.870;2023-08-21T10:49:37;98945.81;;;37.37;21.68
46412;BME280;32113;42.012;24.870;2023-08-21T10:52:03;98942.66;;;37.27;22.32
46412;BME280;32113;42.012;24.870;2023-08-21T10:54:28;98933.00;;;37.26;22.74
46412;BME280;32113;42.012;24.870;2023-08-21T10:57:07;98941.00;;;37.47;22.18
46412;BME280;32113;42.012;24.870;2023-08-21T10:59:32;98937.84;;;37.66;22.77
46412;BME280;32113;42.012;24.870;2023-08-21T11:01:58;98945.91;;;37.72;21.71
46412;BME280;32113;42.012;24.870;2023-08-21T11:04:24;98934.22;;;37.80;21.89
46412;BME280;32113;42.012;24.870;2023-08-21T11:06:50;98929.28;;;37.84;21.51
46412;BME280;32113;42.012;24.870;2023-08-21T11:09:16;98928.91;;;37.87;21.78
46412;BME280;32113;42.012;24.870;2023-08-21T11:11:43;98929.75;;;37.94;22.18
46412;BME280;32113;42.012;24.870;2023-08-21T11:14:08;98936.28;;;37.85;21.71
46412;BME280;32113;42.012;24.870;2023-08-21T11:16:33;98939.16;;;37.77;21.81
46412;BME280;32113;42.012;24.870;2023-08-21T11:19:02;98927.31;;;37.64;22.03
46412;BME280;32113;42.012;24.870;2023-08-21T11:21:28;98936.91;;;37.58;22.15
46412;BME280;32113;42.012;24.870;2023-08-21T11:23:53;98925.56;;;37.50;21.50
46412;BME280;32113;42.012;24.870;2023-08-21T11:26:18;98925.75;;;37.48;21.32
46412;BME280;32113;42.012;24.870;2023-08-21T11:28:44;98918.91;;;37.67;22.07
46412;BME280;32113;42.012;24.870;2023-08-21T11:31:09;98916.34;;;37.88;20.71
46412;BME280;32113;42.012;24.870;2023-08-21T11:33:36;98914.56;;;38.02;20.76
46412;BME280;32113;42.012;24.870;2023-08-21T11:36:02;98917.00;;;37.96;20.33
46412;BME280;32113;42.012;24.870;2023-08-21T11:38:27;98918.00;;;37.89;20.48
46412;BME280;32113;42.012;24.870;2023-08-21T11:40:57;98919.38;;;37.78;20.28
46412;BME280;32113;42.012;24.870;2023-08-21T11:43:44;98916.47;;;37.72;20.42
46412;BME280;32113;42.012;24.870;2023-08-21T11:46:09;98912.25;;;37.98;20.91
46412;BME280;32113;42.012;24.870;2023-08-21T11:48:38;98902.53;;;38.26;19.57
46412;BME280;32113;42.012;24.870;2023-08-21T11:51:04;98897.41;;;38.38;19.19
46412;BME280;32113;42.012;24.870;2023-08-21T11:53:30;98905.69;;;38.50;19.88
46412;BME280;32113;42.012;24.870;2023-08-21T11:55:56;98899.94;;;38.60;19.33
46412;BME280;32113;42.012;24.870;2023-08-21T11:58:21;98898.69;;;38.49;19.33
46412;BME280;32113;42.012;24.870;2023-08-21T12:00:46;98901.13;;;38.37;19.42
46412;BME280;32113;42.012;24.870;2023-08-21T12:03:12;98912.41;;;38.25;18.91
46412;BME280;32113;42.012;24.870;2023-08-21T12:05:42;98900.78;;;38.05;18.85
46412;BME280;32113;42.012;24.870;2023-08-21T12:08:09;98901.09;;;37.88;18.48
46412;BME280;32113;42.012;24.870;2023-08-21T12:10:34;98896.94;;;37.79;18.87
46412;BME280;32113;42.012;24.870;2023-08-21T12:12:59;98901.22;;;37.73;18.80
46412;BME280;32113;42.012;24.870;2023-08-21T12:15:25;98888.09;;;37.85;19.09
46412;BME280;32113;42.012;24.870;2023-08-21T12:17:50;98879.13;;;38.06;19.31
46412;BME280;32113;42.012;24.870;2023-08-21T12:20:15;98888.50;;;38.24;19.20
46412;BME280;32113;42.012;24.870;2023-08-21T12:22:41;98883.19;;;38.37;19.00
46412;BME280;32113;42.012;24.870;2023-08-21T12:25:09;98873.38;;;38.58;18.06
46412;BME280;32113;42.012;24.870;2023-08-21T12:27:35;98874.22;;;38.72;18.12
46412;BME280;32113;42.012;24.870;2023-08-21T12:30:01;98867.63;;;38.82;18.05
46412;BME280;32113;42.012;24.870;2023-08-21T12:32:26;98868.44;;;38.96;17.45
46412;BME280;32113;42.012;24.870;2023-08-21T12:34:51;98870.72;;;38.92;18.47
46412;BME280;32113;42.012;24.870;2023-08-21T12:37:17;98875.66;;;38.82;18.16
46412;BME280;32113;42.012;24.870;2023-08-21T12:39:42;98874.84;;;38.61;17.74
46412;BME280;32113;42.012;24.870;2023-08-21T12:42:07;98872.50;;;38.51;18.99
46412;BME280;32113;42.012;24.870;2023-08-21T12:44:33;98871.03;;;38.42;18.66
46412;BME280;32113;42.012;24.870;2023-08-21T12:46:58;98874.94;;;38.32;19.14
46412;BME280;32113;42.012;24.870;2023-08-21T12:49:24;98864.81;;;38.14;19.33
46412;BME280;32113;42.012;24.870;2023-08-21T12:51:49;98863.28;;;38.05;19.74
46412;BME280;32113;42.012;24.870;2023-08-21T12:54:14;98864.28;;;37.90;19.76
46412;BME280;32113;42.012;24.870;2023-08-21T12:56:39;98867.31;;;37.80;20.37